Time;durP1;ratioP1;P1;durP2;ratioP2;P2;SDS_P1;SDS_P2;PMS_P1;PMS_P2;Temp;Humidity;BMP_temperature;BMP_pressure;BME280_temperature;BME280_humidity;BME280_pressure;Samples;Min_cycle;Max_cycle;Signal;HPM_P1;HPM_P2
2024/03/10 00:00:57;;;;;;;6.87;6.10;;;;;;;14.16;41.50;95447.28;5029850;28;20830;-71
2024/03/10 00:03:22;;;;;;;8.50;6.90;;;;;;;14.16;41.33;95445.44;5041988;28;20449;-72
2024/03/10 00:05:48;;;;;;;6.53;5.87;;;;;;;14.11;41.35;95442.66;5031143;28;20482;-69
2024/03/10 00:08:14;;;;;;;6.53;5.77;;;;;;;13.97;42.09;95441.97;5030205;28;20214;-70
2024/03/10 00:10:41;;;;;;;11.70;6.40;;;;;;;13.83;42.23;95449.19;5022165;28;20422;-69
2024/03/10 00:13:08;;;;;;;10.00;6.63;;;;;;;13.80;42.20;95439.09;5038024;28;20199;-71
2024/03/10 00:15:34;;;;;;;9.23;6.73;;;;;;;13.83;41.71;95439.44;5042369;28;20451;-71
2024/03/10 00:17:59;;;;;;;6.60;5.67;;;;;;;13.78;41.75;95439.31;5041042;28;20930;-70
2024/03/10 00:20:25;;;;;;;6.83;6.00;;;;;;;13.70;41.28;95438.78;5041846;28;20337;-68
2024/03/10 00:22:50;;;;;;;6.80;5.87;;;;;;;13.76;41.20;95436.09;5039415;28;20183;-71
2024/03/10 00:25:16;;;;;;;7.40;5.37;;;;;;;13.76;40.82;95440.53;5030721;28;20232;-70
2024/03/10 00:27:41;;;;;;;12.83;6.70;;;;;;;13.73;41.33;95439.13;5033346;28;20223;-70
2024/03/10 00:30:09;;;;;;;6.13;5.20;;;;;;;13.75;41.50;95434.47;5037793;28;20191;-69
2024/03/10 00:32:38;;;;;;;11.13;5.93;;;;;;;13.75;41.47;95431.84;5041151;28;20623;-71
2024/03/10 00:35:08;;;;;;;8.20;6.20;;;;;;;13.83;41.28;95428.13;5038026;28;20473;-72
2024/03/10 00:37:34;;;;;;;6.27;5.63;;;;;;;13.75;41.32;95426.56;5037980;28;20503;-69
2024/03/10 00:39:59;;;;;;;6.73;6.00;;;;;;;13.78;41.74;95430.59;5042084;28;20828;-70
2024/03/10 00:42:25;;;;;;;11.23;6.67;;;;;;;13.76;41.80;95422.09;5029687;28;20184;-69
2024/03/10 00:44:51;;;;;;;9.90;6.10;;;;;;;13.83;41.64;95423.66;5030724;28;20665;-70
2024/03/10 00:47:20;;;;;;;8.90;7.20;;;;;;;13.87;41.42;95424.03;5032659;28;20207;-70
2024/03/10 00:49:45;;;;;;;8.00;6.07;;;;;;;13.93;41.19;95423.16;5032654;28;20927;-72
2024/03/10 00:52:11;;;;;;;7.90;6.20;;;;;;;13.91;41.38;95408.63;5041256;28;20419;-70
2024/03/10 00:54:36;;;;;;;6.07;5.20;;;;;;;13.94;41.51;95421.34;5029395;28;20192;-70
2024/03/10 00:57:02;;;;;;;8.10;6.90;;;;;;;13.92;41.76;95424.19;5028920;28;20278;-70
2024/03/10 00:59:28;;;;;;;10.27;6.90;;;;;;;13.76;42.08;95424.72;5031467;28;20227;-72
2024/03/10 01:01:53;;;;;;;8.80;6.10;;;;;;;13.79;42.33;95421.69;5030106;28;20916;-72
2024/03/10 01:04:19;;;;;;;10.13;7.47;;;;;;;13.71;42.49;95420.13;5040938;28;20187;-71
2024/03/10 01:06:45;;;;;;;6.70;5.63;;;;;;;13.63;42.70;95426.47;5030897;28;20196;-70
2024/03/10 01:09:11;;;;;;;7.07;6.20;;;;;;;13.64;43.14;95425.44;5028971;28;20237;-71
2024/03/10 01:11:39;;;;;;;7.73;6.13;;;;;;;13.69;42.93;95416.91;5038033;28;20425;-70
2024/03/10 01:14:05;;;;;;;8.83;6.77;;;;;;;13.55;43.25;95410.13;5029059;28;20571;-70
2024/03/10 01:16:32;;;;;;;10.10;6.90;;;;;;;13.49;43.82;95411.78;5032190;28;20469;-69
2024/03/10 01:18:57;;;;;;;8.80;6.57;;;;;;;13.54;43.69;95401.44;5033379;28;20558;-72
2024/03/10 01:21:24;;;;;;;12.03;7.20;;;;;;;13.59;43.49;95396.34;5028740;28;20597;-71
2024/03/10 01:23:52;;;;;;;9.30;6.97;;;;;;;13.69;43.56;95401.09;5031038;28;20513;-70
2024/03/10 01:26:18;;;;;;;10.93;6.00;;;;;;;13.73;43.23;95396.22;5029400;28;20207;-70
2024/03/10 01:28:44;;;;;;;9.40;7.30;;;;;;;13.64;43.21;95391.22;5036750;28;20437;-69
2024/03/10 01:31:09;;;;;;;7.00;6.27;;;;;;;13.66;43.62;95397.09;5036842;28;20931;-70
2024/03/10 01:33:36;;;;;;;6.10;5.30;;;;;;;13.69;43.39;95405.56;5029118;28;20198;-71
2024/03/10 01:36:04;;;;;;;8.00;6.17;;;;;;;13.63;43.44;95394.88;5036088;28;20218;-70
2024/03/10 01:38:30;;;;;;;7.60;6.80;;;;;;;13.60;43.81;95387.44;5041600;28;20915;-70
2024/03/10 01:40:57;;;;;;;8.13;6.60;;;;;;;13.49;44.11;95378.41;5038183;28;20461;-72
2024/03/10 01:43:23;;;;;;;9.77;6.20;;;;;;;13.49;44.07;95380.22;5040623;28;20422;-71
2024/03/10 01:45:51;;;;;;;8.50;6.77;;;;;;;13.56;44.25;95380.97;5043321;28;20915;-70
2024/03/10 01:48:17;;;;;;;8.43;5.90;;;;;;;13.64;43.96;95377.28;5032691;28;20278;-71
2024/03/10 01:50:43;;;;;;;8.87;6.83;;;;;;;13.60;43.76;95369.00;5024282;28;20525;-71
2024/03/10 01:53:09;;;;;;;8.50;7.30;;;;;;;13.56;43.94;95364.38;5028147;28;20187;-71
2024/03/10 01:55:37;;;;;;;13.43;8.50;;;;;;;13.62;44.00;95361.69;5043646;28;20195;-71
2024/03/10 01:58:02;;;;;;;12.20;8.23;;;;;;;13.60;43.75;95355.84;5026945;28;20418;-70
2024/03/10 02:00:28;;;;;;;11.30;9.10;;;;;;;13.62;43.99;95353.00;5025033;28;20458;-72
2024/03/10 02:02:54;;;;;;;10.37;7.47;;;;;;;13.54;43.80;95354.06;5027916;28;20199;-72
2024/03/10 02:05:22;;;;;;;11.00;7.80;;;;;;;13.47;44.45;95348.06;5028053;28;20183;-70
2024/03/10 02:07:48;;;;;;;10.20;7.90;;;;;;;13.45;44.44;95350.09;5018927;28;20943;-72
2024/03/10 02:10:14;;;;;;;9.83;7.53;;;;;;;13.45;44.74;95348.25;5043669;28;20496;-70
2024/03/10 02:12:40;;;;;;;9.00;6.50;;;;;;;13.47;44.71;95342.81;5032390;28;20245;-69
2024/03/10 02:15:06;;;;;;;7.80;6.43;;;;;;;13.54;45.03;95350.66;5028702;28;20201;-71
2024/03/10 02:17:32;;;;;;;9.90;6.37;;;;;;;13.54;44.94;95346.16;5017092;28;20447;-69
2024/03/10 02:19:57;;;;;;;7.87;6.27;;;;;;;13.56;44.87;95338.06;5023677;28;20871;-70
2024/03/10 02:22:26;;;;;;;7.13;6.00;;;;;;;13.55;44.98;95336.44;5026261;28;20198;-71
2024/03/10 02:24:56;;;;;;;6.83;5.87;;;;;;;13.48;45.31;95333.91;5035194;28;20668;-68
2024/03/10 02:27:21;;;;;;;9.73;6.67;;;;;;;13.41;45.48;95328.69;5032082;28;20484;-72
2024/03/10 02:30:00;;;;;;;7.77;6.60;;;;;;;13.42;45.61;95324.22;5051725;28;20418;-70
2024/03/10 02:48:53;;;;;;;8.07;6.40;;;;;;;13.26;45.42;95297.41;5033886;28;20513;-70
2024/03/10 02:51:19;;;;;;;7.40;5.80;;;;;;;13.26;45.46;95299.25;5037821;28;20426;-71
2024/03/10 02:53:46;;;;;;;6.53;5.33;;;;;;;13.26;45.00;95300.03;5032186;28;20426;-69
2024/03/10 02:56:13;;;;;;;6.27;5.67;;;;;;;13.29;45.01;95296.97;5040980;28;20954;-70
2024/03/10 02:58:39;;;;;;;6.40;5.70;;;;;;;13.28;45.10;95305.88;5031667;28;20845;-71
2024/03/10 03:01:05;;;;;;;7.77;6.20;;;;;;;13.28;45.23;95300.63;5038217;28;20513;-71
2024/03/10 03:03:31;;;;;;;7.70;5.97;;;;;;;13.29;45.07;95294.34;5034546;28;20267;-70
2024/03/10 03:05:57;;;;;;;7.70;6.03;;;;;;;13.21;45.64;95294.63;5034989;28;20920;-70
2024/03/10 03:08:24;;;;;;;8.43;6.17;;;;;;;13.05;46.07;95290.69;5032994;28;20458;-72
2024/03/10 03:10:50;;;;;;;7.90;6.50;;;;;;;13.01;46.34;95287.69;5031603;28;20191;-70
2024/03/10 03:13:16;;;;;;;8.03;6.20;;;;;;;12.97;46.68;95273.38;5031005;28;20480;-70
2024/03/10 03:15:42;;;;;;;8.07;6.63;;;;;;;12.98;46.72;95268.91;5041968;28;20722;-70
2024/03/10 03:18:08;;;;;;;8.73;5.90;;;;;;;12.96;46.61;95277.03;5032109;28;20427;-71
2024/03/10 03:20:34;;;;;;;8.73;6.13;;;;;;;12.92;47.11;95270.59;5040581;28;20978;-69
2024/03/10 03:23:02;;;;;;;7.87;6.37;;;;;;;12.84;47.33;95263.75;5032639;28;20187;-71
2024/03/10 03:25:28;;;;;;;5.90;5.30;;;;;;;12.83;47.53;95253.47;5032517;28;20426;-71
2024/03/10 03:27:54;;;;;;;6.80;5.40;;;;;;;12.82;47.09;95255.28;5043486;28;20449;-72
2024/03/10 03:30:20;;;;;;;7.27;5.80;;;;;;;12.82;47.15;95255.28;5033127;28;20798;-71
2024/03/10 03:32:47;;;;;;;7.80;5.70;;;;;;;12.79;46.85;95257.53;5030039;28;20456;-71
2024/03/10 03:35:15;;;;;;;8.10;5.90;;;;;;;12.71;46.78;95256.78;5029978;28;20454;-72
2024/03/10 03:37:41;;;;;;;6.27;5.67;;;;;;;12.68;47.25;95259.03;5031503;28;20457;-71
2024/03/10 03:40:07;;;;;;;7.73;5.80;;;;;;;12.66;47.17;95243.47;5037494;28;20453;-72
2024/03/10 03:42:36;;;;;;;8.40;6.53;;;;;;;12.72;47.56;95244.44;5039074;28;20430;-70
2024/03/10 03:45:04;;;;;;;11.90;7.27;;;;;;;12.79;47.20;95232.03;5034693;28;20179;-70
2024/03/10 03:47:30;;;;;;;18.50;7.43;;;;;;;12.65;47.28;95233.19;5029991;28;20438;-69
2024/03/10 03:49:55;;;;;;;22.33;8.00;;;;;;;12.58;47.59;95233.25;5046939;28;20425;-70
2024/03/10 03:52:21;;;;;;;10.90;7.13;;;;;;;12.55;47.41;95231.03;5033101;28;20644;-71
2024/03/10 03:54:46;;;;;;;8.27;6.40;;;;;;;12.48;47.80;95228.44;5027806;28;20267;-70
2024/03/10 03:57:12;;;;;;;7.83;6.10;;;;;;;12.52;47.67;95223.56;5041170;28;20203;-73
2024/03/10 03:59:40;;;;;;;8.00;6.20;;;;;;;12.51;47.39;95222.78;5039622;28;20211;-71
2024/03/10 04:02:09;;;;;;;13.30;7.60;;;;;;;12.55;47.28;95223.16;5047647;28;20175;-71
2024/03/10 04:04:35;;;;;;;7.83;6.30;;;;;;;12.59;47.48;95219.09;5014189;28;20457;-71
2024/03/10 04:07:00;;;;;;;10.97;6.37;;;;;;;12.57;47.09;95221.13;5045264;28;20971;-73
2024/03/10 04:09:26;;;;;;;7.57;5.40;;;;;;;12.52;47.09;95207.81;5051247;28;20191;-71
2024/03/10 04:11:52;;;;;;;9.37;5.73;;;;;;;12.40;47.63;95205.88;5043508;28;20188;-71
2024/03/10 04:14:17;;;;;;;8.23;6.03;;;;;;;12.38;47.67;95197.38;5044540;28;20200;-70
2024/03/10 04:16:44;;;;;;;8.60;6.60;;;;;;;12.42;47.93;95180.19;5043499;28;20511;-70
2024/03/10 04:19:10;;;;;;;8.77;6.20;;;;;;;12.36;48.05;95178.41;5039986;28;20175;-70
2024/03/10 04:21:36;;;;;;;7.50;6.13;;;;;;;12.27;48.12;95174.44;5034479;28;20477;-69
2024/03/10 04:24:04;;;;;;;6.83;5.40;;;;;;;12.23;47.76;95165.34;5032999;28;20426;-71
2024/03/10 04:26:29;;;;;;;9.97;5.93;;;;;;;12.22;48.04;95169.03;5027362;28;20294;-69
2024/03/10 04:28:56;;;;;;;7.33;5.40;;;;;;;12.14;47.92;95162.22;5030601;28;20496;-70
2024/03/10 04:31:23;;;;;;;8.30;5.73;;;;;;;12.12;47.86;95161.59;5029527;28;20179;-70
2024/03/10 04:33:49;;;;;;;8.97;6.40;;;;;;;12.12;48.17;95169.50;5030505;28;20414;-69
2024/03/10 04:36:15;;;;;;;9.23;5.50;;;;;;;12.10;48.14;95174.13;5040165;28;20481;-70
2024/03/10 04:38:43;;;;;;;9.13;6.00;;;;;;;12.13;48.29;95168.47;5040453;28;20561;-71
2024/03/10 04:41:09;;;;;;;7.43;6.00;;;;;;;12.14;48.16;95172.72;5029142;28;20458;-71
2024/03/10 04:43:34;;;;;;;7.80;5.97;;;;;;;12.07;48.22;95175.38;5041580;28;20428;-72
2024/03/10 04:45:59;;;;;;;8.07;5.40;;;;;;;12.09;48.17;95169.91;5043275;28;20443;-71
2024/03/10 04:48:27;;;;;;;6.37;5.47;;;;;;;12.03;48.28;95166.31;5033179;28;20270;-70
2024/03/10 04:50:52;;;;;;;7.67;5.33;;;;;;;12.04;47.90;95165.28;5033330;28;20532;-73
2024/03/10 04:53:19;;;;;;;9.70;5.93;;;;;;;12.03;47.95;95155.81;5037283;28;20426;-70
2024/03/10 04:55:45;;;;;;;8.93;6.07;;;;;;;11.95;48.66;95156.03;5029581;28;20249;-70
2024/03/10 04:58:10;;;;;;;8.47;6.03;;;;;;;12.00;48.59;95150.97;5030920;28;20414;-71
2024/03/10 05:00:35;;;;;;;6.80;5.70;;;;;;;11.94;48.45;95159.66;5041046;28;20719;-70
2024/03/10 05:03:05;;;;;;;8.47;5.63;;;;;;;11.91;48.60;95167.97;5040622;28;20262;-70
2024/03/10 05:05:31;;;;;;;6.73;5.83;;;;;;;11.91;48.51;95174.00;5042193;28;20263;-69
2024/03/10 05:07:57;;;;;;;13.47;7.80;;;;;;;11.95;48.56;95174.41;5023022;28;20577;-71
2024/03/10 05:10:22;;;;;;;12.03;7.37;;;;;;;11.89;48.72;95183.09;5034218;28;20433;-72
2024/03/10 05:12:48;;;;;;;9.80;6.67;;;;;;;11.78;48.67;95174.88;5032399;28;20179;-72
2024/03/10 05:15:16;;;;;;;7.50;5.90;;;;;;;11.82;48.99;95173.47;5031379;28;20207;-69
2024/03/10 05:17:43;;;;;;;10.13;5.97;;;;;;;11.81;48.84;95169.22;5037302;28;20290;-70
2024/03/10 05:20:11;;;;;;;7.70;5.33;;;;;;;11.83;48.75;95158.50;5034515;28;20519;-72
2024/03/10 05:22:37;;;;;;;13.03;6.10;;;;;;;11.85;48.67;95156.47;5026010;28;20426;-70
2024/03/10 05:25:03;;;;;;;9.50;6.20;;;;;;;11.91;48.55;95167.97;5042507;28;20465;-70
2024/03/10 05:27:29;;;;;;;9.40;6.33;;;;;;;11.87;48.05;95164.97;5028746;28;20215;-72
2024/03/10 05:29:54;;;;;;;8.13;6.17;;;;;;;11.85;48.44;95161.72;5022780;28;20650;-71
2024/03/10 05:32:20;;;;;;;8.00;5.87;;;;;;;11.81;48.11;95160.53;5033606;28;20926;-70
2024/03/10 05:34:46;;;;;;;5.90;4.90;;;;;;;11.79;48.02;95166.00;5036208;28;20681;-70
2024/03/10 05:37:12;;;;;;;7.27;5.30;;;;;;;11.72;48.67;95167.84;5028644;28;20442;-70
2024/03/10 05:39:37;;;;;;;5.90;4.83;;;;;;;11.78;48.42;95177.50;5020545;28;20647;-69
2024/03/10 05:42:05;;;;;;;7.20;6.27;;;;;;;11.75;48.12;95179.75;5040064;28;20440;-71
2024/03/10 05:44:33;;;;;;;10.30;6.17;;;;;;;11.71;48.68;95179.38;5036318;28;20180;-70
2024/03/10 05:47:00;;;;;;;8.10;5.80;;;;;;;11.76;48.67;95186.63;5022926;28;20546;-70
2024/03/10 05:49:26;;;;;;;6.47;5.73;;;;;;;11.64;48.34;95194.31;5034045;28;20939;-70
2024/03/10 05:51:53;;;;;;;7.53;5.90;;;;;;;11.69;48.59;95199.75;5037293;28;20452;-69
2024/03/10 05:54:18;;;;;;;6.43;5.20;;;;;;;11.62;48.36;95205.03;5038887;28;20841;-69
2024/03/10 05:56:44;;;;;;;7.53;5.67;;;;;;;11.66;48.76;95200.97;5039738;28;20533;-69
2024/03/10 05:59:09;;;;;;;6.83;5.53;;;;;;;11.69;48.40;95207.63;5026116;28;20753;-70
2024/03/10 06:01:35;;;;;;;7.60;5.83;;;;;;;11.69;48.46;95197.13;5029278;28;20702;-71
2024/03/10 06:04:00;;;;;;;7.10;5.50;;;;;;;11.71;48.18;95196.91;5034953;28;20184;-71
2024/03/10 06:06:25;;;;;;;8.83;5.80;;;;;;;11.62;48.13;95197.16;5025508;28;20211;-72
2024/03/10 06:08:51;;;;;;;9.00;7.10;;;;;;;11.54;48.78;95202.63;5036707;28;20556;-69
2024/03/10 06:11:18;;;;;;;10.90;7.70;;;;;;;11.49;49.12;95194.59;5034781;28;20171;-69
2024/03/10 06:13:44;;;;;;;12.80;7.90;;;;;;;11.56;48.74;95186.69;5034093;28;20279;-72
2024/03/10 06:16:09;;;;;;;12.33;7.17;;;;;;;11.50;49.26;95178.63;5025169;28;20500;-70
2024/03/10 06:27:07;;;;;;;6.43;5.20;;;;;;;11.52;48.70;95165.31;5020673;28;20454;-70
2024/03/10 06:29:32;;;;;;;10.83;7.30;;;;;;;11.56;48.70;95170.94;5030087;28;20459;-70
2024/03/10 06:31:58;;;;;;;8.67;7.07;;;;;;;11.40;48.31;95170.41;5039474;28;20437;-73
2024/03/10 06:34:24;;;;;;;8.53;6.80;;;;;;;11.22;49.05;95174.47;5037657;28;20184;-70
2024/03/10 06:36:50;;;;;;;10.10;6.73;;;;;;;11.27;49.56;95173.06;5034893;28;20824;-70
2024/03/10 06:39:19;;;;;;;5.87;5.27;;;;;;;11.36;49.29;95175.25;5045665;28;20184;-71
2024/03/10 06:41:46;;;;;;;11.80;7.60;;;;;;;11.42;49.08;95175.44;5035070;28;20686;-71
2024/03/10 06:44:15;;;;;;;9.77;7.33;;;;;;;11.47;49.54;95175.63;5034020;28;20454;-71
2024/03/10 06:46:43;;;;;;;8.77;6.03;;;;;;;11.42;48.74;95172.81;5039498;28;20472;-69
2024/03/10 06:49:09;;;;;;;7.17;5.63;;;;;;;11.38;48.90;95177.66;5035189;28;20219;-70
2024/03/10 06:51:34;;;;;;;8.10;6.07;;;;;;;11.48;48.97;95188.53;5029371;28;20501;-69
2024/03/10 06:54:00;;;;;;;6.90;5.60;;;;;;;11.51;48.97;95188.09;5035458;28;20190;-71
2024/03/10 06:56:25;;;;;;;7.47;6.07;;;;;;;11.53;48.41;95191.34;5034856;28;20238;-71
2024/03/10 06:58:54;;;;;;;13.63;7.77;;;;;;;11.47;48.41;95197.41;5035169;28;20183;-69
2024/03/10 07:01:21;;;;;;;10.40;7.50;;;;;;;11.40;48.50;95175.66;5034402;28;20301;-69
2024/03/10 07:03:47;;;;;;;8.30;5.87;;;;;;;11.22;49.38;95179.72;5034926;28;20426;-71
2024/03/10 07:06:12;;;;;;;7.87;4.87;;;;;;;11.27;49.64;95170.44;5035231;28;20434;-70
2024/03/10 07:08:38;;;;;;;5.80;4.70;;;;;;;11.35;49.30;95157.91;5034785;28;20212;-69
2024/03/10 07:11:03;;;;;;;7.90;5.30;;;;;;;11.49;48.93;95150.00;5040859;28;20186;-71
2024/03/10 07:13:29;;;;;;;11.53;6.53;;;;;;;11.56;49.14;95148.13;5037581;28;20272;-71
2024/03/10 07:15:54;;;;;;;10.03;7.03;;;;;;;11.64;48.98;95134.81;5033998;28;20276;-69
2024/03/10 07:18:20;;;;;;;12.97;7.17;;;;;;;11.68;48.50;95132.56;5036550;28;20183;-69
2024/03/10 07:20:46;;;;;;;8.10;6.53;;;;;;;11.69;48.03;95126.28;5042483;28;20203;-70
2024/03/10 07:23:12;;;;;;;6.80;5.50;;;;;;;11.66;48.37;95127.50;5035700;28;20273;-70
2024/03/10 07:25:37;;;;;;;7.83;5.80;;;;;;;11.64;48.78;95136.59;5040492;28;20505;-70
2024/03/10 07:28:03;;;;;;;8.20;5.70;;;;;;;11.63;48.95;95135.00;5034772;28;20228;-70
2024/03/10 07:30:29;;;;;;;6.47;5.10;;;;;;;11.66;49.27;95131.94;5034065;28;20664;-70
2024/03/10 07:32:55;;;;;;;8.57;5.67;;;;;;;11.64;49.58;95124.31;5028613;28;20187;-70
2024/03/10 07:35:21;;;;;;;6.70;5.40;;;;;;;11.64;49.67;95128.72;5031303;28;20188;-70
2024/03/10 07:37:47;;;;;;;6.23;4.47;;;;;;;11.55;49.19;95122.13;5033732;28;20484;-70
2024/03/10 07:40:19;;;;;;;5.63;4.60;;;;;;;11.43;49.36;95116.72;5038509;28;20474;-71
2024/03/10 07:42:45;;;;;;;7.10;5.20;;;;;;;11.41;48.77;95114.31;5032380;28;21817;-71
2024/03/10 07:45:11;;;;;;;5.90;4.70;;;;;;;11.53;48.89;95119.69;5037716;28;20506;-71
2024/03/10 07:47:44;;;;;;;10.63;4.73;;;;;;;11.69;48.61;95134.16;5033880;28;20541;-71
2024/03/10 07:50:11;;;;;;;5.20;4.30;;;;;;;11.79;48.08;95147.63;5031976;28;20172;-70
2024/03/10 07:52:40;;;;;;;5.27;4.60;;;;;;;11.98;46.75;95150.38;5028717;28;20440;-70
2024/03/10 07:55:06;;;;;;;4.67;4.03;;;;;;;12.11;46.99;95152.91;5029626;28;20825;-70
2024/03/10 07:57:34;;;;;;;4.70;4.00;;;;;;;12.26;46.71;95152.63;5033355;28;20884;-71
2024/03/10 08:00:05;;;;;;;5.07;3.80;;;;;;;12.39;46.63;95162.22;5035363;28;20558;-71
2024/03/10 08:02:31;;;;;;;5.20;4.50;;;;;;;12.52;46.83;95158.72;5038432;28;20465;-71
2024/03/10 08:04:57;;;;;;;5.07;4.37;;;;;;;12.66;46.69;95153.34;5037671;28;20422;-72
2024/03/10 08:07:22;;;;;;;5.20;4.23;;;;;;;12.71;45.86;95158.75;5038841;28;21137;-69
2024/03/10 08:09:48;;;;;;;6.77;4.87;;;;;;;12.80;46.07;95157.44;5031124;28;20184;-69
2024/03/10 08:12:13;;;;;;;4.63;4.20;;;;;;;12.96;45.09;95165.78;5029372;28;20184;-71
2024/03/10 08:14:39;;;;;;;5.90;4.73;;;;;;;13.09;44.83;95154.34;5036297;28;20195;-70
2024/03/10 08:17:05;;;;;;;6.20;4.77;;;;;;;13.20;44.28;95146.53;5037987;28;20284;-70
2024/03/10 08:19:30;;;;;;;4.83;4.10;;;;;;;13.31;43.93;95142.38;5030963;28;20556;-70
2024/03/10 08:21:57;;;;;;;6.80;4.67;;;;;;;13.40;42.95;95134.22;5031481;28;20425;-70
2024/03/10 08:24:23;;;;;;;4.23;3.77;;;;;;;13.46;43.27;95144.66;5030326;28;20442;-70
2024/03/10 08:26:49;;;;;;;13.47;10.70;;;;;;;13.50;42.57;95134.47;5035180;28;20229;-70
2024/03/10 08:29:15;;;;;;;40.03;28.10;;;;;;;13.48;42.92;95116.31;5033590;28;20214;-70
2024/03/10 08:31:41;;;;;;;24.00;18.60;;;;;;;13.52;43.19;95106.13;5038073;28;20866;-69
2024/03/10 08:34:08;;;;;;;12.57;10.37;;;;;;;13.56;43.47;95104.66;5018152;28;20526;-70
2024/03/10 08:36:35;;;;;;;6.60;5.83;;;;;;;13.48;42.49;95126.03;5034414;28;20529;-71
2024/03/10 08:39:06;;;;;;;10.30;7.60;;;;;;;13.48;41.78;95126.03;5033864;28;20439;-70
2024/03/10 08:41:32;;;;;;;7.20;6.50;;;;;;;13.55;41.86;95121.47;5028259;28;20500;-70
2024/03/10 08:44:00;;;;;;;6.43;5.23;;;;;;;13.55;41.51;95121.47;5032821;28;20914;-71
2024/03/10 08:46:25;;;;;;;6.40;5.33;;;;;;;13.67;42.04;95118.91;5028217;28;20591;-69
2024/03/10 08:48:51;;;;;;;5.80;4.00;;;;;;;13.72;41.25;95120.88;5035856;28;20434;-70
2024/03/10 08:51:17;;;;;;;4.10;3.57;;;;;;;13.71;41.31;95114.78;5038074;28;20176;-70
2024/03/10 08:53:43;;;;;;;4.93;4.07;;;;;;;13.76;41.02;95109.66;5037775;28;20965;-70
2024/03/10 08:56:09;;;;;;;4.53;4.00;;;;;;;13.88;42.25;95111.53;5032075;28;20439;-69
2024/03/10 08:58:35;;;;;;;4.23;3.80;;;;;;;13.94;41.96;95108.81;5023693;28;20899;-70
2024/03/10 09:01:04;;;;;;;5.17;4.27;;;;;;;14.09;42.42;95115.50;5029894;28;20683;-71
2024/03/10 09:03:30;;;;;;;4.90;4.30;;;;;;;14.16;41.34;95108.28;5033986;28;20415;-71
2024/03/10 09:05:55;;;;;;;5.30;3.97;;;;;;;14.30;41.84;95098.38;5034309;28;20427;-70
2024/03/10 09:08:21;;;;;;;4.97;3.93;;;;;;;14.43;41.14;95099.97;5025420;28;20548;-70
2024/03/10 09:10:46;;;;;;;3.90;3.50;;;;;;;14.57;40.53;95105.81;5030848;28;20184;-71
2024/03/10 09:13:13;;;;;;;4.97;4.37;;;;;;;14.73;40.14;95109.66;5035342;28;20597;-72
2024/03/10 09:15:39;;;;;;;5.93;3.80;;;;;;;14.90;39.81;95113.16;5029617;28;20276;-70
2024/03/10 09:18:05;;;;;;;7.47;3.93;;;;;;;15.13;39.68;95140.56;5041408;28;20486;-71
2024/03/10 09:20:31;;;;;;;5.97;3.80;;;;;;;15.27;38.73;95137.66;5030792;28;20462;-72
2024/03/10 09:22:57;;;;;;;6.90;5.50;;;;;;;15.41;37.78;95141.66;5033649;28;20760;-70
2024/03/10 09:25:23;;;;;;;4.17;3.60;;;;;;;15.55;38.44;95151.94;5019454;28;20652;-69
2024/03/10 09:27:49;;;;;;;4.20;3.80;;;;;;;15.73;38.41;95154.44;5031197;28;20446;-71
2024/03/10 09:30:17;;;;;;;6.00;3.60;;;;;;;15.93;38.21;95166.44;5029617;28;20554;-71
2024/03/10 09:32:49;;;;;;;3.50;3.20;;;;;;;16.01;37.08;95160.78;5029830;28;20419;-69
2024/03/10 09:35:20;;;;;;;4.53;3.47;;;;;;;16.07;36.96;95149.28;5035835;28;20422;-69
2024/03/10 09:37:46;;;;;;;6.33;4.00;;;;;;;16.15;36.84;95141.97;5032552;28;20432;-70
2024/03/10 09:40:14;;;;;;;3.53;3.20;;;;;;;16.20;36.94;95139.44;5043782;28;20979;-71
2024/03/10 09:42:39;;;;;;;3.33;3.03;;;;;;;16.07;36.17;95138.69;5028884;28;20422;-70
2024/03/10 09:45:15;;;;;;;4.00;3.30;;;;;;;15.97;35.84;95122.69;5032294;28;20792;-71
2024/03/10 09:47:43;;;;;;;33.07;22.43;;;;;;;15.85;36.05;95108.72;5012346;28;20282;-70
2024/03/10 09:50:10;;;;;;;36.73;23.40;;;;;;;15.88;36.45;95105.63;5029855;28;20414;-69
2024/03/10 09:52:36;;;;;;;16.97;11.13;;;;;;;15.90;36.26;95119.38;5031004;28;20419;-69
2024/03/10 09:55:04;;;;;;;9.27;6.00;;;;;;;15.90;36.49;95124.66;5020177;28;20481;-70
2024/03/10 09:57:30;;;;;;;4.03;3.50;;;;;;;15.93;36.68;95132.09;5027849;28;20446;-71
2024/03/10 09:59:58;;;;;;;3.93;3.53;;;;;;;15.96;36.70;95147.47;5037525;28;20516;-70
2024/03/10 10:02:34;;;;;;;4.20;3.80;;;;;;;15.93;36.43;95134.75;5032766;28;20194;-69
2024/03/10 10:05:03;;;;;;;4.60;3.77;;;;;;;15.90;36.92;95117.53;5032172;28;20425;-71
2024/03/10 10:07:29;;;;;;;3.90;3.50;;;;;;;15.92;36.52;95114.66;5034103;28;20438;-69
2024/03/10 10:09:55;;;;;;;3.40;2.87;;;;;;;15.95;36.58;95108.91;5027038;28;21158;-70
2024/03/10 10:12:21;;;;;;;5.23;3.33;;;;;;;15.94;36.26;95113.38;5035966;28;20216;-72
2024/03/10 10:14:47;;;;;;;4.03;3.50;;;;;;;15.92;36.02;95112.00;5030170;28;20517;-70
2024/03/10 10:17:14;;;;;;;3.33;3.00;;;;;;;15.93;36.19;95113.63;5041537;28;20210;-70
2024/03/10 10:19:40;;;;;;;4.40;3.10;;;;;;;15.89;35.82;95112.47;5045169;28;20421;-70
2024/03/10 10:22:06;;;;;;;3.57;2.90;;;;;;;15.86;35.67;95123.53;5026870;28;20437;-72
2024/03/10 10:24:32;;;;;;;8.23;7.43;;;;;;;15.85;35.90;95122.72;5028040;28;20427;-71
2024/03/10 10:27:03;;;;;;;10.50;8.40;;;;;;;15.86;35.83;95118.25;5035933;28;20449;-69
2024/03/10 10:29:30;;;;;;;5.73;4.93;;;;;;;15.86;35.80;95116.41;5024711;28;20187;-71
2024/03/10 10:31:59;;;;;;;6.33;5.57;;;;;;;15.89;36.48;95115.94;5020529;28;20441;-69
2024/03/10 10:34:25;;;;;;;11.70;3.57;;;;;;;15.92;36.19;95117.28;4989314;28;20477;-69
2024/03/10 10:36:54;;;;;;;8.30;4.20;;;;;;;15.95;36.01;95130.81;5026499;28;20450;-71
2024/03/10 10:39:26;;;;;;;7.43;2.40;;;;;;;15.93;35.70;95125.00;5027147;28;20433;-70
2024/03/10 10:41:55;;;;;;;3.10;2.77;;;;;;;15.93;35.54;95116.25;5027545;28;20458;-70
2024/03/10 10:44:21;;;;;;;3.30;2.80;;;;;;;15.93;36.15;95116.25;5027014;28;20492;-70
2024/03/10 10:46:48;;;;;;;4.40;3.80;;;;;;;15.90;35.81;95106.97;5034006;28;21119;-72
2024/03/10 10:49:16;;;;;;;4.73;2.93;;;;;;;15.88;35.87;95109.03;5018824;28;20509;-71
2024/03/10 10:51:47;;;;;;;4.17;3.03;;;;;;;15.85;35.76;95114.00;5034387;28;20422;-71
2024/03/10 10:54:13;;;;;;;9.30;7.30;;;;;;;15.86;35.95;95110.34;5023769;28;20423;-70
2024/03/10 10:56:39;;;;;;;8.57;5.00;;;;;;;15.91;35.88;95092.72;5034906;28;20451;-69
2024/03/10 10:59:05;;;;;;;2.90;2.60;;;;;;;15.92;36.04;95085.59;5025756;28;20186;-71
2024/03/10 11:01:31;;;;;;;2.90;2.30;;;;;;;15.92;35.78;95083.78;5032478;28;20800;-70
2024/03/10 11:03:57;;;;;;;2.60;2.40;;;;;;;15.97;35.79;95072.50;5028087;28;20433;-69
2024/03/10 11:06:23;;;;;;;4.13;2.87;;;;;;;15.96;35.84;95073.53;5027898;28;20578;-70
2024/03/10 11:08:52;;;;;;;4.67;3.50;;;;;;;15.99;35.57;95080.16;5033261;28;20916;-71
2024/03/10 11:11:47;;;;;;;2.37;2.17;;;;;;;16.07;35.59;95085.03;5039075;28;20532;-73
2024/03/10 11:14:15;;;;;;;3.30;2.50;;;;;;;16.07;35.36;95098.25;5028024;28;20434;-70
2024/03/10 11:16:41;;;;;;;4.73;2.67;;;;;;;16.12;35.35;95096.53;5032847;28;20970;-68
2024/03/10 11:19:27;;;;;;;3.47;2.57;;;;;;;16.16;35.51;95088.09;5031863;28;20423;-70
2024/03/10 11:21:52;;;;;;;3.10;2.40;;;;;;;16.19;35.62;95099.00;5031061;28;20453;-72
2024/03/10 11:24:24;;;;;;;3.50;2.73;;;;;;;16.24;36.20;95106.22;5039840;28;20432;-71
2024/03/10 11:27:18;;;;;;;13.53;5.90;;;;;;;16.30;36.13;95107.91;5033548;28;20250;-70
2024/03/10 11:29:44;;;;;;;6.93;3.23;;;;;;;16.34;35.71;95100.28;5031794;28;20472;-71
2024/03/10 11:32:31;;;;;;;3.00;2.60;;;;;;;16.37;35.32;95100.63;5034157;28;20514;-72
2024/03/10 11:34:59;;;;;;;4.10;2.77;;;;;;;16.40;35.58;95094.84;5028947;28;20811;-71
2024/03/10 11:37:25;;;;;;;2.73;2.50;;;;;;;16.38;35.35;95086.34;5041292;28;20970;-70
2024/03/10 11:39:51;;;;;;;4.27;3.23;;;;;;;16.40;35.70;95083.47;5030560;28;20521;-70
2024/03/10 11:42:18;;;;;;;7.07;3.90;;;;;;;16.43;35.65;95080.34;5032630;28;20898;-70
2024/03/10 11:44:45;;;;;;;6.70;2.70;;;;;;;16.43;35.26;95083.78;5041359;28;20183;-71
2024/03/10 11:47:11;;;;;;;14.13;7.50;;;;;;;16.42;35.85;95079.53;5035894;28;20453;-71
2024/03/10 11:49:37;;;;;;;6.30;4.00;;;;;;;16.47;35.96;95081.47;5031121;28;20430;-71
2024/03/10 11:52:06;;;;;;;4.03;3.63;;;;;;;16.43;35.38;95094.38;5030151;28;20930;-71
2024/03/10 11:54:32;;;;;;;5.70;4.33;;;;;;;16.31;35.54;95092.84;5030857;28;20898;-71